Time;durP1;ratioP1;P1;durP2;ratioP2;P2;SDS_P1;SDS_P2;PMS_P1;PMS_P2;Temp;Humidity;BMP_temperature;BMP_pressure;BME280_temperature;BME280_humidity;BME280_pressure;Samples;Min_cycle;Max_cycle;Signal;HPM_P1;HPM_P2
2021/03/01 00:01:10;;;;;;;5.15;2.90;;;21.20;52.40;;;;;;5031318;28;20120;-42
2021/03/01 00:03:36;;;;;;;3.45;2.30;;;21.20;52.40;;;;;;5024993;28;20144;-46
2021/03/01 00:06:03;;;;;;;3.50;2.85;;;21.20;52.40;;;;;;5025852;28;20041;-46
2021/03/01 00:08:28;;;;;;;3.63;2.53;;;21.20;52.20;;;;;;5030911;28;20022;-41
2021/03/01 00:10:54;;;;;;;3.33;2.58;;;21.20;52.30;;;;;;5030105;28;20486;-41
2021/03/01 00:13:21;;;;;;;3.05;2.40;;;21.20;52.20;;;;;;5029908;28;20041;-42
2021/03/01 00:15:48;;;;;;;3.22;2.35;;;21.10;52.10;;;;;;5027836;28;20091;-42
2021/03/01 00:18:13;;;;;;;3.67;2.47;;;21.10;51.90;;;;;;5027919;28;20037;-42
2021/03/01 00:20:39;;;;;;;3.78;2.80;;;21.10;52.00;;;;;;5021836;28;20034;-46
2021/03/01 00:23:05;;;;;;;3.70;3.03;;;21.10;52.00;;;;;;5029825;28;20823;-42
2021/03/01 00:25:31;;;;;;;4.25;2.92;;;21.10;51.80;;;;;;5027227;28;20041;-44
2021/03/01 00:27:56;;;;;;;3.55;2.40;;;21.10;51.70;;;;;;5030038;28;20021;-44
2021/03/01 00:30:22;;;;;;;4.18;2.92;;;21.10;51.70;;;;;;5024294;28;20061;-42
2021/03/01 00:32:48;;;;;;;4.03;3.28;;;21.10;51.70;;;;;;5026667;28;20060;-41
2021/03/01 00:35:14;;;;;;;4.03;2.95;;;21.00;52.20;;;;;;5026661;28;20029;-41
2021/03/01 00:37:40;;;;;;;4.53;2.85;;;21.10;51.50;;;;;;5023568;28;20471;-45
2021/03/01 00:40:07;;;;;;;4.03;2.58;;;21.10;51.50;;;;;;5011283;28;20037;-45
2021/03/01 00:42:33;;;;;;;3.53;2.60;;;21.00;51.40;;;;;;5027572;28;20029;-43
2021/03/01 00:44:59;;;;;;;3.40;2.30;;;21.00;52.00;;;;;;5022215;28;20063;-41
2021/03/01 00:47:25;;;;;;;3.67;2.75;;;21.00;51.30;;;;;;5027178;28;20065;-40
2021/03/01 00:49:51;;;;;;;3.53;2.60;;;21.00;51.20;;;;;;5024174;28;20033;-42
2021/03/01 00:52:16;;;;;;;3.00;2.55;;;21.00;51.30;;;;;;5026445;28;20025;-41
2021/03/01 00:54:42;;;;;;;4.32;2.90;;;21.00;51.20;;;;;;5026846;28;20041;-44
2021/03/01 00:57:08;;;;;;;3.20;2.38;;;21.00;51.10;;;;;;5027518;28;20045;-42
2021/03/01 00:59:33;;;;;;;3.72;2.80;;;21.00;51.00;;;;;;5025762;28;20422;-42
2021/03/01 01:01:59;;;;;;;3.30;2.67;;;21.00;51.00;;;;;;5023323;28;20033;-43
2021/03/01 01:04:25;;;;;;;3.47;2.70;;;21.00;51.00;;;;;;5028816;28;20025;-41
2021/03/01 01:06:50;;;;;;;3.42;2.25;;;21.00;50.80;;;;;;5026210;28;20087;-44
2021/03/01 01:09:17;;;;;;;3.97;2.70;;;20.90;50.80;;;;;;5007948;28;20112;-44
2021/03/01 01:11:43;;;;;;;3.25;2.47;;;20.90;50.70;;;;;;5023206;28;20056;-41
2021/03/01 01:14:08;;;;;;;4.60;3.00;;;20.90;50.70;;;;;;5024116;28;20030;-45
2021/03/01 01:16:34;;;;;;;3.10;2.80;;;20.90;50.60;;;;;;5023059;28;20521;-44
2021/03/01 01:19:00;;;;;;;4.90;3.15;;;20.90;50.50;;;;;;5024731;28;20049;-42
2021/03/01 01:21:25;;;;;;;3.40;2.63;;;20.90;50.40;;;;;;5026884;28;20034;-41
2021/03/01 01:23:51;;;;;;;4.28;2.72;;;21.00;50.50;;;;;;5024445;28;20044;-45
2021/03/01 01:26:16;;;;;;;3.33;2.47;;;20.90;50.40;;;;;;5026428;28;20033;-42
2021/03/01 01:28:42;;;;;;;3.65;2.55;;;20.90;50.30;;;;;;5021948;28;20030;-41
2021/03/01 01:31:08;;;;;;;3.03;2.50;;;20.90;50.30;;;;;;5022817;28;20029;-41
2021/03/01 01:33:34;;;;;;;3.05;2.50;;;20.90;50.20;;;;;;5024476;28;20094;-41
2021/03/01 01:35:59;;;;;;;3.75;2.45;;;20.90;50.10;;;;;;5023208;28;20840;-41
2021/03/01 01:38:25;;;;;;;5.13;2.75;;;20.90;50.00;;;;;;5025561;28;20033;-43
2021/03/01 01:40:50;;;;;;;4.30;2.85;;;20.90;50.00;;;;;;5019550;28;20025;-43
2021/03/01 01:43:16;;;;;;;4.53;2.90;;;20.90;49.90;;;;;;5027425;28;20086;-41
2021/03/01 01:45:41;;;;;;;3.13;2.58;;;20.90;49.90;;;;;;5021679;28;20522;-46
2021/03/01 01:48:07;;;;;;;6.15;2.72;;;20.90;49.90;;;;;;5022996;28;20030;-41
2021/03/01 01:50:33;;;;;;;3.20;2.90;;;20.90;49.80;;;;;;5022098;28;20057;-41
2021/03/01 01:53:00;;;;;;;5.18;3.33;;;20.90;49.90;;;;;;5020649;28;20022;-44
2021/03/01 01:55:26;;;;;;;3.65;3.00;;;20.90;49.80;;;;;;5022567;28;20383;-42
2021/03/01 01:57:52;;;;;;;3.90;2.63;;;20.80;49.70;;;;;;5020569;28;20041;-42
2021/03/01 02:00:38;;;;;;;4.55;3.40;;;20.90;49.70;;;;;;5022015;28;20045;-41
2021/03/01 02:03:35;;;;;;;4.35;3.50;;;20.90;49.70;;;;;;5020212;28;20128;-41
2021/03/01 02:06:10;;;;;;;3.22;2.50;;;20.90;49.70;;;;;;5020739;28;20553;-42
2021/03/01 02:08:51;;;;;;;3.92;2.80;;;20.80;49.60;;;;;;5022213;28;20049;-44
2021/03/01 02:11:22;;;;;;;3.00;2.40;;;20.80;49.50;;;;;;5026730;28;20033;-45
2021/03/01 02:13:56;;;;;;;3.75;2.60;;;20.80;49.40;;;;;;5008592;28;20033;-41
2021/03/01 02:16:31;;;;;;;3.92;3.05;;;20.80;49.50;;;;;;5023103;28;20372;-42
2021/03/01 02:18:58;;;;;;;4.68;2.80;;;20.90;49.30;;;;;;5028655;28;20737;-42
2021/03/01 02:21:25;;;;;;;4.05;2.72;;;20.80;49.20;;;;;;5029707;28;20037;-41
2021/03/01 02:23:51;;;;;;;4.97;2.80;;;20.80;49.20;;;;;;5029023;28;20033;-44
2021/03/01 02:26:22;;;;;;;3.80;2.67;;;20.80;49.10;;;;;;5028759;28;20133;-44
2021/03/01 02:28:51;;;;;;;3.08;2.70;;;20.80;49.10;;;;;;5028209;28;20037;-42
2021/03/01 02:31:17;;;;;;;5.30;2.83;;;20.80;49.00;;;;;;5029520;28;20041;-43
2021/03/01 02:33:50;;;;;;;4.63;2.63;;;20.80;49.10;;;;;;5028690;28;20028;-43
2021/03/01 02:36:22;;;;;;;4.53;2.95;;;20.80;48.90;;;;;;5029575;28;20034;-41
2021/03/01 02:38:49;;;;;;;3.92;2.78;;;20.80;48.90;;;;;;5028579;28;20060;-41
2021/03/01 02:41:17;;;;;;;5.43;2.88;;;20.80;48.90;;;;;;5025894;28;20502;-41
2021/03/01 02:43:42;;;;;;;4.88;2.92;;;20.80;48.80;;;;;;5028482;28;20041;-46
2021/03/01 02:46:11;;;;;;;6.45;2.70;;;20.80;48.80;;;;;;5029276;28;20040;-41
2021/03/01 02:48:39;;;;;;;3.97;2.50;;;20.80;48.70;;;;;;5029395;28;20116;-45
2021/03/01 02:51:06;;;;;;;4.35;2.83;;;20.80;48.70;;;;;;5029210;28;20474;-46
2021/03/01 02:53:33;;;;;;;4.32;2.40;;;20.80;48.70;;;;;;5011714;28;20562;-43
2021/03/01 02:56:00;;;;;;;4.45;2.67;;;20.70;48.60;;;;;;5028992;28;20113;-44
2021/03/01 02:58:29;;;;;;;4.97;3.20;;;20.80;48.50;;;;;;5029486;28;20038;-44
2021/03/01 03:00:56;;;;;;;4.90;2.88;;;20.80;48.60;;;;;;5028332;28;20530;-45
2021/03/01 03:03:24;;;;;;;3.38;2.63;;;20.80;48.60;;;;;;5029345;28;20117;-44
2021/03/01 03:05:52;;;;;;;2.67;2.30;;;20.80;48.60;;;;;;5028516;28;20429;-44
2021/03/01 03:08:19;;;;;;;4.07;3.08;;;20.80;48.60;;;;;;5005371;28;20438;-42
2021/03/01 03:10:46;;;;;;;3.05;2.60;;;20.70;48.30;;;;;;5028416;28;20034;-43
2021/03/01 03:13:13;;;;;;;3.60;2.55;;;20.80;48.40;;;;;;5028244;28;20033;-43
2021/03/01 03:15:44;;;;;;;4.32;3.28;;;20.70;48.20;;;;;;5028419;28;20034;-49
2021/03/01 03:18:13;;;;;;;3.92;2.72;;;20.70;48.20;;;;;;5029235;28;20025;-42
2021/03/01 03:20:39;;;;;;;3.70;2.92;;;20.70;48.10;;;;;;5028713;28;20038;-48
2021/03/01 03:23:06;;;;;;;3.92;2.60;;;20.70;48.10;;;;;;5029744;28;20095;-41
2021/03/01 03:25:32;;;;;;;4.07;2.63;;;20.80;48.10;;;;;;5028979;28;20029;-45
2021/03/01 03:27:57;;;;;;;5.15;3.03;;;20.70;48.00;;;;;;5027946;28;20028;-45
2021/03/01 03:30:24;;;;;;;4.88;2.97;;;20.80;48.10;;;;;;5029505;28;20053;-43
2021/03/01 03:32:52;;;;;;;3.50;2.47;;;20.70;48.10;;;;;;5028008;28;20065;-44
2021/03/01 03:35:19;;;;;;;2.95;2.42;;;20.70;48.00;;;;;;5029201;28;20052;-46
2021/03/01 03:37:50;;;;;;;4.50;2.97;;;20.70;47.90;;;;;;5028033;28;20032;-44
2021/03/01 03:40:18;;;;;;;3.33;2.65;;;20.70;47.90;;;;;;5031308;28;20171;-45
2021/03/01 03:42:45;;;;;;;2.95;2.50;;;20.70;47.80;;;;;;5031258;28;20033;-44
2021/03/01 03:45:15;;;;;;;3.42;2.75;;;20.70;47.70;;;;;;5033068;28;20033;-43
2021/03/01 03:47:43;;;;;;;4.18;2.80;;;20.70;47.70;;;;;;5031407;28;20033;-48
2021/03/01 03:50:11;;;;;;;3.53;2.78;;;20.70;47.70;;;;;;5032819;28;20032;-43
2021/03/01 03:52:40;;;;;;;3.05;2.58;;;20.70;47.60;;;;;;5032669;28;20474;-47
2021/03/01 03:55:10;;;;;;;3.90;2.67;;;20.70;47.60;;;;;;5032424;28;20457;-42
2021/03/01 03:57:38;;;;;;;4.70;2.47;;;20.70;47.50;;;;;;5032441;28;20128;-44
2021/03/01 04:00:09;;;;;;;3.95;2.60;;;20.70;47.50;;;;;;5031733;28;20057;-41
2021/03/01 04:02:38;;;;;;;4.95;2.67;;;20.70;47.50;;;;;;5032322;28;20053;-42
2021/03/01 04:05:05;;;;;;;3.63;2.85;;;20.70;47.30;;;;;;5031991;28;20112;-43
2021/03/01 04:07:33;;;;;;;4.40;3.22;;;20.70;47.30;;;;;;5031490;28;20026;-41
2021/03/01 04:10:01;;;;;;;5.00;2.75;;;20.70;47.30;;;;;;5031670;28;20036;-47
2021/03/01 04:12:31;;;;;;;4.25;3.08;;;20.70;47.30;;;;;;5030402;28;20047;-40
2021/03/01 04:14:57;;;;;;;4.03;2.42;;;20.70;47.20;;;;;;5030381;28;20874;-43
2021/03/01 04:17:24;;;;;;;3.97;3.00;;;20.70;47.20;;;;;;5031697;28;20418;-43
2021/03/01 04:19:52;;;;;;;3.83;2.58;;;20.70;47.20;;;;;;5030491;28;20033;-45
2021/03/01 04:22:19;;;;;;;3.90;2.60;;;20.70;47.10;;;;;;5024158;28;20112;-42
2021/03/01 04:24:48;;;;;;;3.95;3.55;;;20.70;47.20;;;;;;5031212;28;20109;-46
2021/03/01 04:27:14;;;;;;;3.70;2.50;;;20.70;47.10;;;;;;5032037;28;20021;-43
2021/03/01 04:29:40;;;;;;;3.50;2.45;;;20.70;47.10;;;;;;5031437;28;20037;-46
2021/03/01 04:32:06;;;;;;;4.43;2.88;;;20.70;47.00;;;;;;5031945;28;20061;-41
2021/03/01 04:34:32;;;;;;;4.00;2.78;;;20.70;47.00;;;;;;5031360;28;20136;-42
2021/03/01 04:36:58;;;;;;;3.17;2.40;;;20.70;47.00;;;;;;5013374;28;20033;-43
2021/03/01 04:39:24;;;;;;;4.03;3.00;;;20.70;47.00;;;;;;5031928;28;20021;-43
2021/03/01 04:41:51;;;;;;;4.10;2.42;;;20.70;47.00;;;;;;5030733;28;20033;-41
2021/03/01 04:44:18;;;;;;;3.10;2.58;;;20.70;46.90;;;;;;5031142;28;20105;-42
2021/03/01 04:46:51;;;;;;;5.22;2.70;;;20.70;46.90;;;;;;5031299;28;20052;-40
2021/03/01 04:49:17;;;;;;;4.22;2.95;;;20.70;46.90;;;;;;5014380;28;20026;-41
2021/03/01 04:51:44;;;;;;;3.25;2.80;;;20.70;46.90;;;;;;5029474;28;20031;-46
2021/03/01 04:54:10;;;;;;;3.88;2.70;;;20.70;46.80;;;;;;5031262;28;20167;-48
2021/03/01 04:56:43;;;;;;;3.78;2.78;;;20.70;46.80;;;;;;5031264;28;20029;-42
2021/03/01 04:59:11;;;;;;;3.25;2.70;;;20.70;46.70;;;;;;5030755;28;20033;-42
2021/03/01 05:01:37;;;;;;;3.15;2.80;;;20.70;46.70;;;;;;5031098;28;20072;-47
2021/03/01 05:04:04;;;;;;;4.93;2.97;;;20.70;46.70;;;;;;5030640;28;20037;-41
2021/03/01 05:06:30;;;;;;;4.63;3.25;;;20.70;46.70;;;;;;5027164;28;20470;-43
2021/03/01 05:08:55;;;;;;;3.85;2.75;;;20.70;46.70;;;;;;5025386;28;20053;-45
2021/03/01 05:11:36;;;;;;;7.95;3.22;;;20.70;46.70;;;;;;5026982;28;20033;-42
2021/03/01 05:14:03;;;;;;;3.45;2.55;;;20.70;46.60;;;;;;5027210;28;20064;-42
2021/03/01 05:16:29;;;;;;;4.22;2.90;;;20.70;46.60;;;;;;5026888;28;20386;-44
2021/03/01 05:18:56;;;;;;;3.53;2.80;;;20.70;46.60;;;;;;5028582;28;20448;-40
2021/03/01 05:21:22;;;;;;;3.33;2.58;;;20.70;46.60;;;;;;5026574;28;20459;-40
2021/03/01 05:23:48;;;;;;;3.97;2.42;;;20.70;46.50;;;;;;5029041;28;20026;-45
2021/03/01 05:26:15;;;;;;;4.93;2.72;;;20.70;46.50;;;;;;5026516;28;20037;-44
2021/03/01 05:28:41;;;;;;;6.40;3.05;;;20.70;46.50;;;;;;5028731;28;20113;-49
2021/03/01 05:31:07;;;;;;;3.97;3.10;;;20.80;46.40;;;;;;5029190;28;20120;-45
2021/03/01 05:33:33;;;;;;;3.30;2.70;;;20.80;46.40;;;;;;5026370;28;20166;-42
2021/03/01 05:35:59;;;;;;;3.88;2.63;;;20.70;46.40;;;;;;5028810;28;20026;-43
2021/03/01 05:38:25;;;;;;;4.05;2.60;;;20.70;46.40;;;;;;5026783;28;20040;-42
2021/03/01 05:40:50;;;;;;;4.22;2.88;;;20.70;46.20;;;;;;5023536;28;20399;-45
2021/03/01 05:43:18;;;;;;;4.53;2.65;;;20.70;46.20;;;;;;5024016;28;20057;-41
2021/03/01 05:45:45;;;;;;;3.08;2.50;;;20.70;46.20;;;;;;5023146;28;20033;-46
2021/03/01 05:48:12;;;;;;;3.25;2.60;;;20.70;46.80;;;;;;5027551;28;20045;-42
2021/03/01 05:50:41;;;;;;;4.05;2.72;;;20.70;46.10;;;;;;5026392;28;20065;-46
2021/03/01 05:53:09;;;;;;;3.65;2.70;;;20.70;46.20;;;;;;5026342;28;20382;-47
2021/03/01 05:55:35;;;;;;;4.25;2.72;;;20.70;46.10;;;;;;5026315;28;20025;-42
2021/03/01 05:58:02;;;;;;;4.65;3.17;;;20.70;46.10;;;;;;5025182;28;20084;-45
2021/03/01 06:00:29;;;;;;;3.47;2.70;;;20.70;46.10;;;;;;5026609;28;20053;-44
2021/03/01 06:02:57;;;;;;;4.15;2.85;;;20.70;46.10;;;;;;5025233;28;20116;-43
2021/03/01 06:05:24;;;;;;;3.90;2.67;;;20.70;46.00;;;;;;5026190;28;20521;-46
2021/03/01 06:07:54;;;;;;;4.15;2.90;;;20.70;46.00;;;;;;5025303;28;20029;-43
2021/03/01 06:10:20;;;;;;;4.60;2.75;;;20.70;46.00;;;;;;5022594;28;20029;-43
2021/03/01 06:12:45;;;;;;;3.70;2.78;;;20.70;45.90;;;;;;5032411;28;20041;-41
2021/03/01 06:15:12;;;;;;;3.28;2.50;;;20.80;45.90;;;;;;5029169;28;20044;-43
2021/03/01 06:17:37;;;;;;;2.83;2.33;;;20.70;45.90;;;;;;5029769;28;20064;-48
2021/03/01 06:20:03;;;;;;;3.38;2.60;;;20.80;45.90;;;;;;5029177;28;20068;-41
2021/03/01 06:22:35;;;;;;;3.75;2.72;;;20.70;45.90;;;;;;5029784;28;20029;-41
2021/03/01 06:25:14;;;;;;;3.45;2.78;;;20.70;45.90;;;;;;5028738;28;20043;-43
2021/03/01 06:27:51;;;;;;;3.50;2.97;;;20.80;45.90;;;;;;5028943;28;20044;-44
2021/03/01 06:30:19;;;;;;;5.65;3.05;;;20.70;45.80;;;;;;5029617;28;20116;-43
2021/03/01 06:33:05;;;;;;;4.13;2.95;;;20.80;45.90;;;;;;5028073;28;20037;-41
2021/03/01 06:35:37;;;;;;;3.80;2.60;;;20.70;45.80;;;;;;5029150;28;20038;-41
2021/03/01 06:38:12;;;;;;;3.15;2.58;;;20.80;45.80;;;;;;5011966;28;20037;-43
2021/03/01 06:40:38;;;;;;;5.28;2.85;;;20.70;45.80;;;;;;5012054;28;20040;-45
2021/03/01 06:43:16;;;;;;;5.07;2.70;;;20.70;45.90;;;;;;5028770;28;20030;-44
2021/03/01 06:45:42;;;;;;;3.53;2.38;;;20.80;45.70;;;;;;5027833;28;20084;-41
2021/03/01 06:48:08;;;;;;;3.55;2.88;;;20.80;45.90;;;;;;5029364;28;20034;-43
2021/03/01 06:50:44;;;;;;;5.43;3.17;;;20.80;46.00;;;;;;5029267;28;20092;-47
2021/03/01 06:53:13;;;;;;;4.15;2.85;;;20.80;45.90;;;;;;5030312;28;20111;-43
2021/03/01 06:55:57;;;;;;;7.35;3.30;;;20.80;46.10;;;;;;5029561;28;20032;-44
2021/03/01 06:58:25;;;;;;;6.68;3.05;;;20.80;46.10;;;;;;5008783;28;20125;-40
2021/03/01 07:01:18;;;;;;;5.10;3.17;;;20.80;46.30;;;;;;5027118;28;20487;-46
2021/03/01 07:03:47;;;;;;;10.05;3.00;;;20.90;46.60;;;;;;5021325;28;20037;-39
2021/03/01 07:06:13;;;;;;;6.95;3.05;;;20.90;46.70;;;;;;5029239;28;20034;-40
2021/03/01 07:08:48;;;;;;;6.53;3.10;;;20.90;46.90;;;;;;5028315;28;20517;-44
2021/03/01 07:11:30;;;;;;;11.82;3.33;;;20.90;47.00;;;;;;5028466;28;20029;-39
2021/03/01 07:14:05;;;;;;;10.32;3.50;;;20.90;47.30;;;;;;5020277;28;20041;-41
2021/03/01 07:16:41;;;;;;;14.35;3.60;;;20.90;47.30;;;;;;5030401;28;20045;-42
2021/03/01 07:19:11;;;;;;;6.28;3.47;;;20.90;47.20;;;;;;5033399;28;20029;-40
2021/03/01 07:21:38;;;;;;;6.88;3.40;;;20.90;47.20;;;;;;5032246;28;20041;-42
2021/03/01 07:24:06;;;;;;;8.68;3.72;;;20.90;47.50;;;;;;5032121;28;20112;-39
2021/03/01 07:26:32;;;;;;;10.25;3.40;;;20.90;47.30;;;;;;5032377;28;20080;-41
2021/03/01 07:29:24;;;;;;;10.27;3.53;;;20.90;47.20;;;;;;5031596;28;20061;-39
2021/03/01 07:32:04;;;;;;;6.00;3.08;;;20.90;47.20;;;;;;5020099;28;20041;-40
2021/03/01 07:34:31;;;;;;;29.73;4.05;;;20.80;47.00;;;;;;5032166;28;20510;-40
2021/03/01 07:36:58;;;;;;;8.82;3.70;;;20.80;47.00;;;;;;5031839;28;20154;-40
2021/03/01 07:39:25;;;;;;;5.38;3.28;;;20.90;47.30;;;;;;5032930;28;20061;-39
2021/03/01 07:41:52;;;;;;;7.10;3.58;;;20.90;47.40;;;;;;5030812;28;20040;-46
2021/03/01 07:44:35;;;;;;;6.80;3.30;;;20.90;47.50;;;;;;5029696;28;20025;-40
2021/03/01 07:47:02;;;;;;;10.82;3.90;;;20.90;47.50;;;;;;5025125;28;20766;-42
2021/03/01 07:49:42;;;;;;;6.82;3.33;;;20.90;47.50;;;;;;5014687;28;20032;-42
2021/03/01 07:52:17;;;;;;;5.50;3.13;;;20.90;47.50;;;;;;5023868;28;20374;-43
2021/03/01 07:54:55;;;;;;;5.97;3.50;;;20.90;47.50;;;;;;5031050;28;20029;-44
2021/03/01 07:57:24;;;;;;;7.00;3.67;;;20.90;47.50;;;;;;5023904;28;20040;-42
2021/03/01 07:59:49;;;;;;;7.25;3.10;;;20.90;47.40;;;;;;5030079;28;20037;-39
2021/03/01 08:02:29;;;;;;;6.45;3.10;;;20.90;47.40;;;;;;5024616;28;20044;-40
2021/03/01 08:04:55;;;;;;;9.48;3.40;;;20.80;47.30;;;;;;5030653;28;20037;-40
2021/03/01 08:07:37;;;;;;;5.93;3.63;;;20.90;47.30;;;;;;5031855;28;20033;-40
2021/03/01 08:10:04;;;;;;;5.05;2.97;;;20.80;47.20;;;;;;5030496;28;20029;-39
2021/03/01 08:12:36;;;;;;;9.18;3.83;;;20.80;47.20;;;;;;5031742;28;20084;-42
2021/03/01 08:15:04;;;;;;;4.90;3.40;;;20.80;47.10;;;;;;5015786;28;20041;-41
2021/03/01 08:17:32;;;;;;;7.13;3.72;;;20.90;47.20;;;;;;5025620;28;20049;-39
2021/03/01 08:20:15;;;;;;;6.45;3.47;;;20.80;47.10;;;;;;5031048;28;20041;-40
2021/03/01 08:23:06;;;;;;;5.22;3.33;;;20.80;47.10;;;;;;5029936;28;20037;-48
2021/03/01 08:25:54;;;;;;;6.60;3.90;;;20.80;47.10;;;;;;5025336;28;20033;-42
2021/03/01 08:28:23;;;;;;;5.97;3.30;;;20.90;47.10;;;;;;5026379;28;20040;-44
2021/03/01 08:31:08;;;;;;;8.02;3.10;;;20.80;47.00;;;;;;5023083;28;20040;-43
2021/03/01 08:33:34;;;;;;;7.40;3.40;;;20.80;47.00;;;;;;5019728;28;20046;-40
2021/03/01 08:36:02;;;;;;;9.18;3.85;;;20.80;46.90;;;;;;5030483;28;20119;-39
2021/03/01 08:38:43;;;;;;;6.68;3.72;;;20.80;46.90;;;;;;5030626;28;20029;-42
2021/03/01 08:41:10;;;;;;;7.22;3.88;;;20.80;46.90;;;;;;5030707;28;20033;-41
2021/03/01 08:43:41;;;;;;;6.63;4.18;;;20.80;46.80;;;;;;5030803;28;20033;-39
2021/03/01 08:46:15;;;;;;;5.95;3.47;;;20.80;46.80;;;;;;5025156;28;20060;-40
2021/03/01 08:48:43;;;;;;;6.35;3.80;;;20.80;46.80;;;;;;5030547;28;20037;-45
2021/03/01 08:51:09;;;;;;;4.88;3.85;;;20.80;46.70;;;;;;5031245;28;20038;-44
2021/03/01 08:53:36;;;;;;;6.15;3.88;;;20.80;46.70;;;;;;5030755;28;20040;-41
2021/03/01 08:56:01;;;;;;;5.57;3.85;;;20.80;46.80;;;;;;5030568;28;20055;-40
2021/03/01 08:58:35;;;;;;;9.10;4.05;;;20.80;46.70;;;;;;5030640;28;20033;-40
2021/03/01 09:01:07;;;;;;;5.93;3.58;;;20.80;46.70;;;;;;5030850;28;20084;-39
2021/03/01 09:03:34;;;;;;;;;;;20.80;46.60;;;;;;5031235;28;20037;-39
2021/03/01 09:06:11;;;;;;;6.95;4.22;;;20.80;46.60;;;;;;5029502;28;20529;-42
2021/03/01 09:08:39;;;;;;;6.15;3.67;;;20.80;46.60;;;;;;5030292;28;20025;-41
2021/03/01 09:11:30;;;;;;;6.30;3.60;;;20.80;46.60;;;;;;5030275;28;20030;-43
2021/03/01 09:14:02;;;;;;;6.25;3.80;;;20.80;46.60;;;;;;5029329;28;20072;-42
2021/03/01 09:16:29;;;;;;;;;;;20.80;46.50;;;;;;5016104;28;20038;-42
2021/03/01 09:19:12;;;;;;;6.45;3.83;;;20.80;46.40;;;;;;5026818;28;20533;-40
2021/03/01 09:21:40;;;;;;;6.50;3.72;;;20.80;46.40;;;;;;5030206;28;20022;-42
2021/03/01 09:24:15;;;;;;;6.20;3.72;;;20.80;46.40;;;;;;5030267;28;20017;-43
2021/03/01 09:26:45;;;;;;;7.20;4.10;;;20.80;46.30;;;;;;5029492;28;20030;-44
2021/03/01 09:29:17;;;;;;;4.85;3.20;;;20.80;46.40;;;;;;5029743;28;20113;-41
2021/03/01 09:31:45;;;;;;;5.20;3.58;;;20.80;46.30;;;;;;5029161;28;20033;-45
2021/03/01 09:34:13;;;;;;;5.78;3.50;;;20.80;46.30;;;;;;5028963;28;20398;-42
2021/03/01 09:36:40;;;;;;;8.55;4.13;;;20.80;46.30;;;;;;5029711;28;20073;-45
2021/03/01 09:39:08;;;;;;;5.68;3.50;;;20.80;46.20;;;;;;5029361;28;20075;-41
2021/03/01 09:41:38;;;;;;;4.88;3.70;;;20.80;46.20;;;;;;5029576;28;20076;-40
2021/03/01 09:44:04;;;;;;;8.07;4.13;;;20.80;46.20;;;;;;5029046;28;20478;-41
2021/03/01 09:46:31;;;;;;;5.55;3.60;;;20.80;46.20;;;;;;5023638;28;20038;-40
2021/03/01 09:49:01;;;;;;;4.93;3.10;;;20.80;46.20;;;;;;5028458;28;20533;-39
2021/03/01 09:51:28;;;;;;;5.93;3.22;;;20.80;46.20;;;;;;5006436;28;20378;-40
2021/03/01 09:53:58;;;;;;;6.35;3.60;;;20.80;46.10;;;;;;5028965;28;20747;-39
2021/03/01 09:56:40;;;;;;;4.93;3.30;;;20.80;46.10;;;;;;5029448;28;20414;-39
2021/03/01 09:59:07;;;;;;;4.22;3.38;;;20.80;46.00;;;;;;5028702;28;20088;-40
2021/03/01 10:01:32;;;;;;;4.07;3.38;;;20.80;46.00;;;;;;5029658;28;20054;-44
2021/03/01 10:03:58;;;;;;;8.85;3.63;;;20.90;46.00;;;;;;5029575;28;20356;-39
2021/03/01 10:06:39;;;;;;;8.45;3.50;;;20.80;46.00;;;;;;5037084;28;20032;-39
2021/03/01 10:09:08;;;;;;;4.25;3.05;;;20.80;45.90;;;;;;5027776;28;20037;-41
2021/03/01 10:11:35;;;;;;;5.10;3.53;;;20.90;46.00;;;;;;5025705;28;20103;-39
2021/03/01 10:14:02;;;;;;;4.93;3.22;;;20.80;45.90;;;;;;5028660;28;20217;-39
2021/03/01 10:16:34;;;;;;;4.13;3.30;;;20.80;45.90;;;;;;5005951;28;20050;-39
2021/03/01 10:19:17;;;;;;;4.57;3.30;;;20.80;45.90;;;;;;5028296;28;20153;-41
2021/03/01 10:21:44;;;;;;;6.55;3.40;;;20.90;45.90;;;;;;5022839;28;20272;-45
2021/03/01 10:24:11;;;;;;;5.60;3.38;;;20.80;45.80;;;;;;5029875;28;20037;-40
2021/03/01 10:26:52;;;;;;;4.88;3.33;;;20.90;45.90;;;;;;5020819;28;20079;-41
2021/03/01 10:29:19;;;;;;;3.75;3.17;;;20.80;45.80;;;;;;5027696;28;20478;-39
2021/03/01 10:31:45;;;;;;;4.85;2.97;;;20.80;45.80;;;;;;5028835;28;20037;-39
2021/03/01 10:34:14;;;;;;;4.57;3.47;;;20.90;45.80;;;;;;5029524;28;20422;-39
2021/03/01 10:36:52;;;;;;;4.18;3.13;;;20.90;45.70;;;;;;5021158;28;20564;-45
2021/03/01 10:39:30;;;;;;;5.15;3.22;;;20.90;45.70;;;;;;5029050;28;20104;-39
2021/03/01 10:42:11;;;;;;;6.10;3.50;;;20.80;45.70;;;;;;5027936;28;20055;-40
2021/03/01 10:44:56;;;;;;;4.82;3.20;;;20.90;45.70;;;;;;5028715;28;20053;-39
2021/03/01 10:47:26;;;;;;;4.47;3.10;;;20.90;45.70;;;;;;5024173;28;20137;-39
2021/03/01 10:49:57;;;;;;;4.90;3.33;;;20.90;45.70;;;;;;5024060;28;20033;-39
2021/03/01 10:52:24;;;;;;;4.55;2.97;;;20.90;45.60;;;;;;5031152;28;20053;-40
2021/03/01 10:54:52;;;;;;;3.80;2.72;;;20.90;45.70;;;;;;5024820;28;20029;-39
2021/03/01 10:57:17;;;;;;;4.65;2.70;;;20.90;45.60;;;;;;5033698;28;20041;-39
2021/03/01 10:59:47;;;;;;;5.15;2.72;;;20.90;45.60;;;;;;5032106;28;20091;-42
2021/03/01 11:02:13;;;;;;;4.45;3.17;;;20.90;45.60;;;;;;5032854;28;20483;-39
2021/03/01 11:04:38;;;;;;;4.63;2.90;;;20.90;45.60;;;;;;5033442;28;20083;-40
2021/03/01 11:07:04;;;;;;;3.92;2.90;;;20.90;45.50;;;;;;5032596;28;20032;-38
2021/03/01 11:09:29;;;;;;;4.75;3.20;;;20.90;45.60;;;;;;5032744;28;20398;-39
2021/03/01 11:11:55;;;;;;;4.85;3.53;;;20.90;45.50;;;;;;5032837;28;20104;-40
2021/03/01 11:14:22;;;;;;;3.55;2.78;;;20.90;45.50;;;;;;5032706;28;20048;-39
2021/03/01 11:16:48;;;;;;;3.63;2.60;;;20.90;45.50;;;;;;5027237;28;20091;-40
2021/03/01 11:19:15;;;;;;;4.00;2.70;;;20.90;45.50;;;;;;5033349;28;20025;-39
2021/03/01 11:21:41;;;;;;;4.53;2.78;;;20.90;45.50;;;;;;5031108;28;20720;-44
2021/03/01 11:24:08;;;;;;;5.30;3.08;;;20.90;45.50;;;;;;5014615;28;20030;-39
2021/03/01 11:26:35;;;;;;;3.85;2.88;;;20.90;45.50;;;;;;5032962;28;20037;-39
2021/03/01 11:29:00;;;;;;;5.15;2.97;;;20.90;45.50;;;;;;5027547;28;20209;-43
2021/03/01 11:31:32;;;;;;;5.10;3.10;;;20.90;45.50;;;;;;5032343;28;20597;-40
2021/03/01 11:34:01;;;;;;;3.80;2.88;;;20.90;45.40;;;;;;5022831;28;20025;-40
2021/03/01 11:36:27;;;;;;;3.92;2.85;;;20.90;45.40;;;;;;5032443;28;20111;-40
2021/03/01 11:38:52;;;;;;;4.82;2.67;;;20.90;45.30;;;;;;5032062;28;20067;-44
2021/03/01 11:41:18;;;;;;;3.95;3.05;;;20.90;45.40;;;;;;5031023;28;20025;-40
2021/03/01 11:43:44;;;;;;;3.63;2.90;;;20.90;45.40;;;;;;5014061;28;20155;-46
2021/03/01 11:46:10;;;;;;;4.45;2.78;;;20.90;45.30;;;;;;5019983;28;20042;-42
2021/03/01 11:48:37;;;;;;;2.83;2.35;;;20.90;45.30;;;;;;5014541;28;20029;-41
2021/03/01 11:51:04;;;;;;;4.13;2.90;;;20.90;45.30;;;;;;5030984;28;20517;-40
2021/03/01 11:53:29;;;;;;;4.70;2.70;;;20.90;45.30;;;;;;5031467;28;20041;-40
2021/03/01 11:55:55;;;;;;;3.60;2.83;;;20.90;45.30;;;;;;5030893;28;20037;-41
2021/03/01 11:58:20;;;;;;;4.55;2.70;;;20.90;45.20;;;;;;5014210;28;20017;-41
2021/03/01 12:00:46;;;;;;;4.57;2.47;;;20.90;45.80;;;;;;5030870;28;20054;-40
2021/03/01 12:03:12;;;;;;;3.78;2.63;;;20.90;45.20;;;;;;5032166;28;20026;-40
2021/03/01 12:05:41;;;;;;;3.17;2.40;;;20.90;45.10;;;;;;5032009;28;20033;-40
2021/03/01 12:08:08;;;;;;;4.00;2.60;;;20.90;45.10;;;;;;5031782;28;20040;-40
2021/03/01 12:10:35;;;;;;;3.75;2.40;;;20.90;45.10;;;;;;5031828;28;20079;-40
2021/03/01 12:13:01;;;;;;;3.33;2.58;;;20.90;45.10;;;;;;5031354;28;20025;-40
2021/03/01 12:15:29;;;;;;;5.00;2.78;;;20.90;45.10;;;;;;5010017;28;20041;-45
2021/03/01 12:17:55;;;;;;;4.40;2.95;;;20.90;45.00;;;;;;5029749;28;20025;-42
2021/03/01 12:20:21;;;;;;;4.75;2.45;;;20.90;45.00;;;;;;5031569;28;20026;-39
2021/03/01 12:22:47;;;;;;;3.65;2.50;;;20.90;45.00;;;;;;5030847;28;20072;-40
2021/03/01 12:25:12;;;;;;;4.43;2.97;;;20.90;45.00;;;;;;5031146;28;20079;-43
2021/03/01 12:27:38;;;;;;;4.38;2.30;;;20.90;45.00;;;;;;5032228;28;20041;-39
2021/03/01 12:30:05;;;;;;;3.78;2.70;;;20.90;45.00;;;;;;5029740;28;20057;-42
2021/03/01 12:32:31;;;;;;;3.63;2.70;;;21.00;45.00;;;;;;5031035;28;20037;-39
2021/03/01 12:34:58;;;;;;;3.00;2.33;;;20.90;44.90;;;;;;5031191;28;20093;-40
2021/03/01 12:37:27;;;;;;;3.05;2.45;;;20.90;44.90;;;;;;5013390;28;20033;-39
2021/03/01 12:39:53;;;;;;;2.90;2.10;;;21.00;44.70;;;;;;5023899;28;20104;-39
2021/03/01 12:42:18;;;;;;;3.92;2.72;;;20.90;44.60;;;;;;5031394;28;20450;-39
2021/03/01 12:44:44;;;;;;;3.05;2.40;;;20.90;44.70;;;;;;5029960;28;20033;-41
2021/03/01 12:47:10;;;;;;;2.92;2.03;;;21.00;44.90;;;;;;5022176;28;20037;-40
2021/03/01 12:49:35;;;;;;;4.10;1.95;;;20.90;44.70;;;;;;5030700;28;20050;-39
2021/03/01 12:52:01;;;;;;;2.88;2.15;;;20.90;44.60;;;;;;5030417;28;20466;-40
2021/03/01 12:54:27;;;;;;;2.60;1.90;;;20.90;44.50;;;;;;5030929;28;20029;-40
2021/03/01 12:56:53;;;;;;;3.20;2.22;;;21.00;44.80;;;;;;5030545;28;20041;-43